createdAt,value
2022-12-13T00:01:22.668Z,99963.28
2022-12-13T00:06:19.440Z,99967.84
2022-12-13T00:11:16.316Z,99958.31
2022-12-13T00:16:15.883Z,99948.03
2022-12-13T00:21:14.676Z,99949.06
2022-12-13T00:26:15.174Z,99938.91
2022-12-13T00:31:51.760Z,99933.03
2022-12-13T00:36:28.067Z,99940.63
2022-12-13T00:41:24.440Z,99940.94
2022-12-13T00:46:23.859Z,99945.91
2022-12-13T00:51:24.429Z,99944.38
2022-12-13T00:56:25.400Z,99943.53
2022-12-13T01:01:25.294Z,99939.91
2022-12-13T01:06:34.054Z,99944.25
2022-12-13T01:11:30.831Z,99942.06
2022-12-13T01:16:27.291Z,99936.22
2022-12-13T01:21:23.674Z,99932.72
2022-12-13T01:26:21.776Z,99927.38
2022-12-13T01:31:20.308Z,99934.44
2022-12-13T01:36:27.901Z,99927.69
2022-12-13T01:41:28.133Z,99923.47
2022-12-13T01:46:24.661Z,99916.94
2022-12-13T01:51:27.540Z,99913.72
2022-12-13T01:56:31.334Z,99919.75
2022-12-13T02:01:28.204Z,99902.91
2022-12-13T02:06:33.753Z,99904.47
2022-12-13T02:11:30.417Z,99909.72
2022-12-13T02:16:58.061Z,99914.13
2022-12-13T02:22:00.213Z,99913.06
2022-12-13T02:27:18.004Z,99922.41
2022-12-13T02:32:34.109Z,99911.91
2022-12-13T02:37:51.795Z,99911.66
2022-12-13T02:42:58.014Z,99905.78
2022-12-13T02:47:57.205Z,99916.53
2022-12-13T02:52:54.990Z,99916.09
2022-12-13T02:57:51.447Z,99915.88
2022-12-13T03:03:06.825Z,99916.38
2022-12-13T03:08:21.638Z,99911.41
2022-12-13T03:13:40.759Z,99923.66
2022-12-13T03:18:39.701Z,99922.13
2022-12-13T03:23:36.791Z,99921.72
2022-12-13T03:28:33.173Z,99927.63
2022-12-13T03:33:29.585Z,99921.59
2022-12-13T03:38:26.221Z,99915.50
2022-12-13T03:43:23.533Z,99921.66
2022-12-13T03:48:22.115Z,99920.81
2022-12-13T03:53:22.188Z,99922.03
2022-12-13T03:58:36.245Z,99921.06
2022-12-13T04:03:34.398Z,99910.50
2022-12-13T04:08:31.064Z,99916.03
2022-12-13T04:13:33.495Z,99913.56
2022-12-13T04:18:29.909Z,99905.47
2022-12-13T04:23:26.764Z,99897.72
2022-12-13T04:28:23.350Z,99902.13
2022-12-13T04:33:21.048Z,99907.56
2022-12-13T04:38:17.997Z,99912.09
2022-12-13T04:43:14.424Z,99906.88
2022-12-13T04:48:10.756Z,99908.72
2022-12-13T04:53:07.053Z,99911.13
2022-12-13T04:58:03.460Z,99905.91
2022-12-13T05:02:59.975Z,99904.47
2022-12-13T05:07:56.601Z,99901.88
2022-12-13T05:12:53.019Z,99893.97
2022-12-13T05:17:49.366Z,99889.75
2022-12-13T05:22:45.836Z,99897.78
2022-12-13T05:27:42.195Z,99890.78
2022-12-13T05:32:43.544Z,99884.81
2022-12-13T05:37:40.671Z,99878.97
2022-12-13T05:42:38.703Z,99887.75
2022-12-13T05:47:35.115Z,99875.63
2022-12-13T05:52:31.501Z,99885.81
2022-12-13T05:57:28.099Z,99879.72
2022-12-13T06:02:24.465Z,99871.16
2022-12-13T06:07:20.967Z,99867.53
2022-12-13T06:12:30.949Z,99868.47
2022-12-13T06:17:33.206Z,99868.41
2022-12-13T06:22:29.565Z,99862.47
2022-12-13T06:27:25.864Z,99866.72
2022-12-13T06:32:22.236Z,99863.19
2022-12-13T06:37:18.791Z,99873.63
2022-12-13T06:42:21.473Z,99865.94
2022-12-13T06:47:30.922Z,99866.81
2022-12-13T06:52:28.613Z,99877.25
2022-12-13T06:57:24.929Z,99876.31
2022-12-13T07:02:25.750Z,99881.38
2022-12-13T07:07:24.944Z,99894.34
2022-12-13T07:12:21.270Z,99894.56
2022-12-13T07:17:31.991Z,99890.00
2022-12-13T07:22:34.594Z,99889.34
2022-12-13T07:27:32.607Z,99888.69
2022-12-13T07:32:29.075Z,99897.22
2022-12-13T07:37:29.955Z,99894.28
2022-12-13T07:42:27.103Z,99886.53
2022-12-13T07:47:23.470Z,99893.56
2022-12-13T07:52:19.843Z,99892.91
2022-12-13T07:57:16.261Z,99894.25
2022-12-13T08:02:13.517Z,99892.53
2022-12-13T08:07:10.512Z,99893.47
2022-12-13T08:12:07.085Z,99899.22
2022-12-13T08:17:03.692Z,99897.41
2022-12-13T08:22:01.626Z,99894.50
2022-12-13T08:27:02.325Z,99891.72
2022-12-13T08:31:58.943Z,99883.63
2022-12-13T08:37:01.768Z,99890.91
2022-12-13T08:41:59.437Z,99893.22
2022-12-13T08:47:12.208Z,99894.78
2022-12-13T08:52:22.514Z,99898.56
2022-12-13T08:57:19.065Z,99905.25
2022-12-13T09:02:16.563Z,99899.56
2022-12-13T09:07:13.517Z,99911.22
2022-12-13T09:12:10.495Z,99915.78
2022-12-13T09:17:23.657Z,99909.31
2022-12-13T09:22:34.014Z,99900.88
2022-12-13T09:27:39.943Z,99912.41
2022-12-13T09:32:36.511Z,99911.00
2022-12-13T09:37:32.939Z,99919.81
2022-12-13T09:42:31.247Z,99921.00
2022-12-13T09:47:35.894Z,99930.22
2022-12-13T09:52:38.424Z,99934.16
2022-12-13T09:57:34.788Z,99932.84
2022-12-13T10:02:34.471Z,99933.03
2022-12-13T10:07:30.958Z,99929.91
2022-12-13T10:12:28.560Z,99926.97
2022-12-13T10:17:38.204Z,99920.47
2022-12-13T10:22:35.919Z,99915.88
2022-12-13T10:27:42.000Z,99911.88
2022-12-13T10:32:50.480Z,99912.31
2022-12-13T10:37:46.876Z,99906.59
2022-12-13T10:42:43.387Z,99904.44
2022-12-13T10:47:43.212Z,99892.84
2022-12-13T10:52:47.885Z,99891.50
2022-12-13T10:57:52.189Z,99884.31
2022-12-13T11:02:54.676Z,99887.22
2022-12-13T11:07:51.319Z,99876.53
2022-12-13T11:12:49.641Z,99853.16
2022-12-13T11:17:51.998Z,99847.69
2022-12-13T11:22:49.397Z,99837.81
2022-12-13T11:28:26.652Z,99837.28
2022-12-13T11:33:47.738Z,99828.09
2022-12-13T11:39:07.084Z,99818.84
2022-12-13T11:44:08.470Z,99811.34
2022-12-13T11:49:16.507Z,99810.59
2022-12-13T11:54:46.768Z,99811.34
2022-12-13T11:59:50.950Z,99807.88
2022-12-13T12:05:00.503Z,99800.38
2022-12-13T12:10:03.058Z,99794.81
2022-12-13T12:15:15.466Z,99776.91
2022-12-13T12:20:23.932Z,99780.97
2022-12-13T12:25:32.777Z,99778.09
2022-12-13T12:30:55.359Z,99780.72
2022-12-13T12:36:19.912Z,99764.91
2022-12-13T12:41:22.297Z,99757.94
2022-12-13T12:47:08.869Z,99761.81
2022-12-13T12:52:32.391Z,99762.44
2022-12-13T12:58:03.756Z,99762.53
2022-12-13T13:03:23.252Z,99753.09
2022-12-13T13:08:55.679Z,99758.97
2022-12-13T13:14:01.286Z,99755.88
2022-12-13T13:19:25.547Z,99737.59
2022-12-13T13:24:25.630Z,99735.97
2022-12-13T13:29:27.371Z,99745.63
2022-12-13T13:34:27.368Z,99754.97
2022-12-13T13:39:26.469Z,99755.88
2022-12-13T13:44:53.207Z,99751.66
2022-12-13T13:50:01.558Z,99748.13
2022-12-13T13:55:13.580Z,99748.63
2022-12-13T14:00:47.481Z,99747.91
2022-12-13T14:05:52.083Z,99760.19
2022-12-13T14:11:07.120Z,99766.28
2022-12-13T14:16:27.980Z,99768.97
2022-12-13T14:21:30.476Z,99763.28
2022-12-13T14:27:04.578Z,99765.47
2022-12-13T14:32:01.875Z,99760.59
2022-12-13T14:37:04.989Z,99758.94
2022-12-13T14:42:18.195Z,99755.69
2022-12-13T14:47:14.850Z,99755.59
2022-12-13T14:52:26.659Z,99761.59
2022-12-13T14:57:27.017Z,99760.22
2022-12-13T15:02:30.993Z,99767.16
2022-12-13T15:07:35.842Z,99768.00
2022-12-13T15:12:32.325Z,99756.41
2022-12-13T15:17:35.309Z,99743.28
2022-12-13T15:22:31.675Z,99739.38
2022-12-13T15:27:28.244Z,99733.81
2022-12-13T15:32:24.625Z,99736.13
2022-12-13T15:37:30.399Z,99743.34
2022-12-13T15:42:38.769Z,99736.88
2022-12-13T15:47:35.187Z,99743.69
2022-12-13T15:52:40.067Z,99721.38
2022-12-13T15:57:50.179Z,99727.09
2022-12-13T16:03:00.229Z,99728.53
2022-12-13T16:08:14.439Z,99714.09
2022-12-13T16:13:26.200Z,99706.63
2022-12-13T16:18:42.623Z,99697.47
2022-12-13T16:23:39.111Z,99692.59
2022-12-13T16:28:35.519Z,99688.38
2022-12-13T16:33:32.244Z,99691.78
2022-12-13T16:38:28.832Z,99684.78
2022-12-13T16:43:33.479Z,99678.97
2022-12-13T16:48:31.203Z,99676.69
2022-12-13T16:53:28.299Z,99676.97
2022-12-13T16:58:25.944Z,99666.66
2022-12-13T17:03:23.544Z,99672.81
2022-12-13T17:08:20.258Z,99670.94
2022-12-13T17:13:16.618Z,99664.91
2022-12-13T17:18:13.036Z,99676.69
2022-12-13T17:23:14.680Z,99667.56
2022-12-13T17:28:14.165Z,99671.06
2022-12-13T17:33:13.165Z,99679.16
2022-12-13T17:38:09.506Z,99677.22
2022-12-13T17:43:05.948Z,99667.84
2022-12-13T17:48:02.352Z,99668.91
2022-12-13T17:52:58.715Z,99665.13
2022-12-13T17:57:57.492Z,99654.75
2022-12-13T18:02:57.720Z,99655.97
2022-12-13T18:07:54.175Z,99651.84
2022-12-13T18:12:50.518Z,99659.25
2022-12-13T18:18:10.764Z,99658.31
2022-12-13T18:23:03.660Z,99652.03
2022-12-13T18:28:01.243Z,99644.41
2022-12-13T18:32:58.722Z,99647.72
2022-12-13T18:37:55.067Z,99632.66
2022-12-13T18:42:51.665Z,99629.16
2022-12-13T18:47:48.051Z,99631.19
2022-12-13T18:52:44.708Z,99629.22
2022-12-13T18:57:41.068Z,99619.13
2022-12-13T19:02:38.339Z,99628.69
2022-12-13T19:07:35.776Z,99622.88
2022-12-13T19:12:32.164Z,99618.69
2022-12-13T19:17:28.826Z,99616.91
2022-12-13T19:22:25.183Z,99609.13
2022-12-13T19:27:21.872Z,99603.84
2022-12-13T19:32:18.784Z,99609.09
2022-12-13T19:37:15.911Z,99598.38
2022-12-13T19:42:12.313Z,99591.75
2022-12-13T19:47:10.867Z,99588.44
2022-12-13T19:52:07.224Z,99590.16
2022-12-13T19:57:07.353Z,99589.25
2022-12-13T20:02:05.589Z,99578.50
2022-12-13T20:07:02.021Z,99575.53
2022-12-13T20:11:58.859Z,99577.28
2022-12-13T20:16:55.215Z,99575.56
2022-12-13T20:21:56.689Z,99568.13
2022-12-13T20:26:53.556Z,99574.19
2022-12-13T20:31:51.134Z,99574.03
2022-12-13T20:36:50.057Z,99571.50
2022-12-13T20:41:46.672Z,99566.47
2022-12-13T20:46:43.140Z,99549.19
2022-12-13T20:51:41.157Z,99557.88
2022-12-13T20:56:38.440Z,99542.28
2022-12-13T21:01:38.334Z,99542.44
2022-12-13T21:06:36.513Z,99543.25
2022-12-13T21:11:38.788Z,99542.69
2022-12-13T21:16:43.773Z,99535.44
2022-12-13T21:21:40.478Z,99521.09
2022-12-13T21:26:36.900Z,99524.00
2022-12-13T21:31:34.690Z,99517.94
2022-12-13T21:36:33.607Z,99513.34
2022-12-13T21:41:30.017Z,99513.84
2022-12-13T21:46:47.481Z,99519.16
2022-12-13T21:51:47.819Z,99513.09
2022-12-13T21:57:02.952Z,99511.38
2022-12-13T22:02:20.289Z,99493.53
2022-12-13T22:07:25.842Z,99484.91
2022-12-13T22:12:36.100Z,99473.56
2022-12-13T22:17:35.784Z,99474.41
2022-12-13T22:22:32.629Z,99468.91
2022-12-13T22:27:29.005Z,99461.03
2022-12-13T22:32:27.416Z,99455.66
2022-12-13T22:37:24.671Z,99453.88
2022-12-13T22:42:21.069Z,99446.13
2022-12-13T22:47:17.477Z,99436.41
2022-12-13T22:52:13.820Z,99436.03
2022-12-13T22:57:10.195Z,99432.53
2022-12-13T23:02:06.646Z,99436.13
2022-12-13T23:07:03.588Z,99441.13
2022-12-13T23:12:18.376Z,99428.09
2022-12-13T23:17:14.738Z,99439.88
2022-12-13T23:22:11.113Z,99430.66
2022-12-13T23:27:07.579Z,99431.41
2022-12-13T23:32:04.469Z,99436.59
2022-12-13T23:37:00.898Z,99444.53
2022-12-13T23:41:57.239Z,99432.34
2022-12-13T23:46:53.759Z,99422.06
2022-12-13T23:51:50.114Z,99422.16
2022-12-13T23:56:47.383Z,99407.56
